Time;durP1;ratioP1;P1;durP2;ratioP2;P2;SDS_P1;SDS_P2;PMS_P1;PMS_P2;Temp;Humidity;BMP_temperature;BMP_pressure;BME280_temperature;BME280_humidity;BME280_pressure;Samples;Min_cycle;Max_cycle;Signal;HPM_P1;HPM_P2
2022/09/17 00:01:01;;;;;;;19.27;3.50;;;10.80;99.90;;;;;;5012859;28;20045;-81
2022/09/17 00:03:28;;;;;;;19.80;3.58;;;10.80;99.90;;;;;;5016295;28;20095;-81
2022/09/17 00:06:05;;;;;;;18.73;3.55;;;10.80;99.90;;;;;;5016320;28;20056;-81
2022/09/17 00:08:32;;;;;;;17.70;3.22;;;10.70;99.90;;;;;;5015311;28;20041;-81
2022/09/17 00:10:57;;;;;;;16.58;3.40;;;10.60;99.90;;;;;;5015768;28;20050;-81
2022/09/17 00:13:23;;;;;;;19.05;3.75;;;10.60;99.90;;;;;;4999575;28;20037;-81
2022/09/17 00:15:51;;;;;;;21.92;3.72;;;10.60;99.90;;;;;;4999741;28;20501;-81
2022/09/17 00:18:17;;;;;;;17.27;3.22;;;10.50;99.90;;;;;;5015688;28;20099;-81
2022/09/17 00:20:45;;;;;;;17.08;3.53;;;10.50;99.90;;;;;;5014614;28;20400;-81
2022/09/17 00:23:13;;;;;;;17.63;3.45;;;10.50;99.90;;;;;;5011007;28;20128;-81
2022/09/17 00:25:43;;;;;;;19.10;3.17;;;10.50;99.90;;;;;;4995978;28;20084;-81
2022/09/17 00:28:10;;;;;;;16.48;3.50;;;10.40;99.90;;;;;;4999385;28;20044;-81
2022/09/17 00:30:43;;;;;;;19.17;3.47;;;10.40;99.90;;;;;;5015968;28;20095;-81
2022/09/17 00:33:12;;;;;;;18.58;3.25;;;10.30;99.90;;;;;;4999447;28;20045;-81
2022/09/17 00:35:38;;;;;;;16.35;2.78;;;10.30;99.90;;;;;;5019298;28;20033;-82
2022/09/17 00:38:04;;;;;;;15.07;3.25;;;10.30;99.90;;;;;;5025112;28;20049;-82
2022/09/17 00:40:30;;;;;;;20.52;3.30;;;10.20;99.90;;;;;;4999455;28;20041;-81
2022/09/17 00:42:55;;;;;;;23.02;3.55;;;10.20;99.90;;;;;;4963774;28;20463;-81
2022/09/17 00:45:22;;;;;;;19.58;3.17;;;10.20;99.90;;;;;;5009847;28;20041;-81
2022/09/17 00:47:58;;;;;;;16.75;3.30;;;10.10;99.90;;;;;;4985427;28;20056;-81
2022/09/17 00:50:30;;;;;;;18.52;3.00;;;10.10;99.90;;;;;;5015944;28;20064;-82
2022/09/17 00:53:16;;;;;;;19.27;3.05;;;10.00;99.90;;;;;;5009911;28;20046;-81
2022/09/17 00:55:53;;;;;;;16.60;3.30;;;10.00;99.90;;;;;;4992224;28;20072;-81
2022/09/17 00:58:21;;;;;;;16.48;3.15;;;10.00;99.90;;;;;;4986487;28;20080;-82
2022/09/17 01:00:47;;;;;;;14.23;3.65;;;9.90;99.90;;;;;;5015511;28;20091;-81
2022/09/17 01:03:13;;;;;;;20.25;2.90;;;9.90;99.90;;;;;;4997057;28;20037;-81
2022/09/17 01:06:11;;;;;;;18.98;3.25;;;9.90;99.90;;;;;;5016006;28;20570;-81
2022/09/17 01:09:07;;;;;;;15.38;3.00;;;9.90;99.90;;;;;;5000954;28;20064;-82
2022/09/17 01:11:48;;;;;;;18.98;2.97;;;9.90;99.90;;;;;;5008114;28;20087;-81
2022/09/17 01:14:24;;;;;;;18.30;3.00;;;9.90;99.90;;;;;;4998759;28;20091;-81
2022/09/17 01:17:07;;;;;;;20.08;2.90;;;9.90;99.90;;;;;;5014854;28;20050;-82
2022/09/17 01:19:51;;;;;;;14.32;3.08;;;9.90;99.90;;;;;;5015367;28;20420;-81
2022/09/17 01:22:51;;;;;;;15.15;2.75;;;10.00;99.90;;;;;;5014437;28;20049;-82
2022/09/17 01:25:51;;;;;;;18.40;3.08;;;9.90;99.90;;;;;;4995107;28;20046;-82
2022/09/17 01:29:01;;;;;;;16.35;2.83;;;9.90;99.90;;;;;;5015125;28;20400;-82
2022/09/17 01:31:56;;;;;;;14.93;2.95;;;9.90;99.90;;;;;;4926052;29;20138;-81
2022/09/17 01:34:41;;;;;;;14.63;2.90;;;9.80;99.90;;;;;;4944383;29;20055;-81
2022/09/17 01:37:30;;;;;;;13.80;2.75;;;9.80;99.90;;;;;;5000893;28;20054;-81
2022/09/17 01:40:11;;;;;;;15.65;2.92;;;9.90;99.90;;;;;;4997858;28;20042;-82
2022/09/17 01:42:55;;;;;;;20.10;3.47;;;9.90;99.90;;;;;;4999968;28;20049;-82
2022/09/17 01:45:24;;;;;;;16.25;2.80;;;9.90;99.90;;;;;;4995602;28;20092;-81
2022/09/17 01:47:55;;;;;;;18.48;2.97;;;9.90;99.90;;;;;;5014828;28;20049;-81
2022/09/17 01:50:26;;;;;;;13.20;2.73;;;9.80;99.90;;;;;;5012416;28;20103;-81
2022/09/17 01:52:55;;;;;;;18.60;3.20;;;9.80;99.90;;;;;;4983941;28;20091;-82
2022/09/17 01:55:28;;;;;;;14.65;2.78;;;9.80;99.90;;;;;;5027901;28;20049;-81
2022/09/17 01:58:18;;;;;;;15.70;3.10;;;9.70;99.90;;;;;;5046082;28;20081;-80
2022/09/17 02:00:50;;;;;;;16.92;2.78;;;9.70;99.90;;;;;;5027160;28;20044;-81
2022/09/17 02:03:15;;;;;;;;;;;9.70;99.90;;;;;;5026541;28;20037;-80
2022/09/17 02:05:48;;;;;;;16.35;2.60;;;9.70;99.90;;;;;;5027414;28;19924;-80
2022/09/17 02:08:24;;;;;;;12.98;2.70;;;9.70;99.90;;;;;;5030186;28;20046;-81
2022/09/17 02:10:56;;;;;;;14.80;2.80;;;9.70;99.90;;;;;;5013260;28;20041;-81
2022/09/17 02:13:36;;;;;;;12.18;2.55;;;9.70;99.90;;;;;;5017229;28;20052;-81
2022/09/17 02:16:11;;;;;;;14.32;3.00;;;9.70;99.90;;;;;;5028557;28;20108;-81
2022/09/17 02:18:50;;;;;;;15.98;2.80;;;9.60;99.90;;;;;;5027025;28;20037;-81
2022/09/17 02:21:28;;;;;;;12.88;2.60;;;9.60;99.90;;;;;;5028847;28;20064;-81
2022/09/17 02:24:00;;;;;;;14.35;2.70;;;9.60;99.90;;;;;;5027156;28;20045;-81
2022/09/17 02:26:26;;;;;;;14.57;2.80;;;9.60;99.90;;;;;;5027836;28;20377;-81
2022/09/17 02:28:59;;;;;;;14.50;2.63;;;9.60;99.90;;;;;;5013107;28;20037;-81
2022/09/17 02:31:24;;;;;;;14.02;2.65;;;9.60;99.90;;;;;;5026318;28;20045;-81
2022/09/17 02:33:56;;;;;;;15.40;2.70;;;9.60;99.90;;;;;;5011986;28;20068;-81
2022/09/17 02:36:23;;;;;;;12.00;2.45;;;9.60;99.90;;;;;;5009508;28;20111;-81
2022/09/17 02:38:57;;;;;;;17.13;2.90;;;9.50;99.90;;;;;;5012222;28;20096;-81
2022/09/17 02:41:33;;;;;;;14.63;2.88;;;9.50;99.90;;;;;;5025042;28;20038;-81
2022/09/17 02:44:08;;;;;;;17.38;2.60;;;9.40;99.90;;;;;;5010433;28;20057;-81
2022/09/17 02:46:42;;;;;;;15.95;2.90;;;9.50;99.90;;;;;;5024423;28;20064;-81
2022/09/17 02:49:35;;;;;;;16.17;2.85;;;9.40;99.90;;;;;;5024000;28;20093;-81
2022/09/17 02:52:24;;;;;;;15.57;2.70;;;9.50;99.90;;;;;;5023083;28;20049;-81
2022/09/17 02:54:50;;;;;;;13.82;2.70;;;9.50;99.90;;;;;;5001275;28;20049;-81
2022/09/17 02:57:35;;;;;;;16.85;2.95;;;9.40;99.90;;;;;;5022114;28;20148;-81
2022/09/17 03:00:20;;;;;;;18.95;2.80;;;9.40;99.90;;;;;;5006704;28;20493;-81
2022/09/17 03:02:57;;;;;;;19.85;3.25;;;9.40;99.90;;;;;;5016661;28;20105;-81
2022/09/17 03:05:25;;;;;;;18.45;2.80;;;9.40;99.90;;;;;;5017995;28;20493;-81
2022/09/17 03:07:51;;;;;;;18.05;3.13;;;9.50;99.90;;;;;;5016631;28;20404;-81
2022/09/17 03:10:18;;;;;;;13.55;2.70;;;9.50;99.90;;;;;;5017092;28;20045;-81
2022/09/17 03:12:44;;;;;;;18.05;3.08;;;9.50;99.90;;;;;;5004481;28;20394;-81
2022/09/17 03:15:10;;;;;;;14.52;2.92;;;9.50;99.90;;;;;;5014086;28;20054;-81
2022/09/17 03:17:36;;;;;;;15.88;2.83;;;9.60;99.90;;;;;;5014592;28;20045;-81
2022/09/17 03:20:02;;;;;;;19.67;3.05;;;9.60;99.90;;;;;;5010257;28;20098;-81
2022/09/17 03:22:28;;;;;;;15.88;2.67;;;9.60;99.90;;;;;;4986113;28;20048;-81
2022/09/17 03:24:53;;;;;;;16.88;2.90;;;9.60;99.90;;;;;;5001157;28;20041;-81
2022/09/17 03:27:19;;;;;;;16.35;2.63;;;9.60;99.90;;;;;;5016853;28;20049;-81
2022/09/17 03:29:45;;;;;;;17.55;3.15;;;9.60;99.90;;;;;;5017096;28;20507;-81
2022/09/17 03:32:11;;;;;;;19.05;2.97;;;9.60;99.90;;;;;;5007840;28;20042;-81
2022/09/17 03:34:36;;;;;;;16.65;2.90;;;9.60;99.90;;;;;;5016737;28;20079;-81
2022/09/17 03:37:02;;;;;;;16.77;3.08;;;9.60;99.90;;;;;;4998361;28;20124;-81
2022/09/17 03:39:28;;;;;;;18.33;3.10;;;9.60;99.90;;;;;;4998577;28;20045;-81
2022/09/17 03:41:54;;;;;;;15.10;2.83;;;9.60;99.90;;;;;;5016756;28;20045;-81
2022/09/17 03:44:21;;;;;;;15.60;2.95;;;9.60;99.90;;;;;;5015048;28;20124;-81
2022/09/17 03:46:47;;;;;;;17.33;2.55;;;9.60;99.90;;;;;;5000276;28;20041;-81
2022/09/17 03:49:13;;;;;;;16.55;2.88;;;9.60;99.90;;;;;;5014982;28;20500;-81
2022/09/17 03:51:38;;;;;;;19.85;2.90;;;9.60;99.90;;;;;;5015997;28;20092;-81
2022/09/17 03:54:04;;;;;;;15.07;2.63;;;9.50;99.90;;;;;;4999719;28;20106;-81
2022/09/17 03:56:30;;;;;;;15.80;2.50;;;9.50;99.90;;;;;;5016665;28;20048;-81
2022/09/17 03:59:00;;;;;;;18.13;2.95;;;9.50;99.90;;;;;;5016816;28;20224;-81
2022/09/17 04:01:26;;;;;;;17.15;2.88;;;9.50;99.90;;;;;;5012213;28;20045;-81
2022/09/17 04:03:52;;;;;;;17.20;2.50;;;9.50;99.90;;;;;;5008374;28;20064;-81
2022/09/17 04:06:18;;;;;;;18.00;2.88;;;9.50;99.90;;;;;;5016359;28;20037;-81
2022/09/17 04:08:44;;;;;;;16.25;2.85;;;9.50;99.90;;;;;;5015516;28;20060;-81
2022/09/17 04:11:10;;;;;;;13.57;2.42;;;9.50;99.90;;;;;;4999830;28;20045;-81
2022/09/17 04:13:35;;;;;;;11.98;2.65;;;9.50;99.90;;;;;;5016050;28;20048;-81
2022/09/17 04:16:02;;;;;;;15.88;2.90;;;9.60;99.90;;;;;;5019945;28;20049;-82
2022/09/17 04:18:27;;;;;;;15.00;2.38;;;9.70;99.90;;;;;;4999814;28;20034;-81
2022/09/17 04:20:53;;;;;;;12.52;2.22;;;9.70;99.90;;;;;;5017949;28;20121;-81
2022/09/17 04:23:19;;;;;;;12.90;2.60;;;9.80;99.90;;;;;;5017199;28;20048;-81
2022/09/17 04:25:45;;;;;;;12.15;2.25;;;9.80;99.90;;;;;;4987418;28;20127;-81
2022/09/17 04:28:11;;;;;;;13.65;2.55;;;9.70;99.90;;;;;;5015937;28;20080;-81
2022/09/17 04:30:38;;;;;;;9.65;2.08;;;9.80;99.90;;;;;;5015778;28;20033;-81
2022/09/17 04:33:03;;;;;;;12.13;2.30;;;9.80;99.90;;;;;;5000645;28;20034;-81
2022/09/17 04:35:29;;;;;;;16.15;2.45;;;9.70;99.90;;;;;;5016165;28;20048;-81
2022/09/17 04:37:58;;;;;;;13.32;2.30;;;9.70;99.90;;;;;;5012503;28;20505;-81
2022/09/17 04:40:25;;;;;;;10.50;2.15;;;9.70;99.90;;;;;;5004983;28;20396;-81
2022/09/17 04:42:55;;;;;;;11.15;2.28;;;9.70;99.90;;;;;;5013831;28;20048;-81
2022/09/17 04:45:22;;;;;;;12.65;2.47;;;9.60;99.90;;;;;;5028175;28;20111;-81
2022/09/17 04:47:49;;;;;;;12.48;2.20;;;9.60;99.90;;;;;;5015644;28;20090;-81
2022/09/17 04:50:17;;;;;;;12.93;2.30;;;9.60;99.90;;;;;;4996481;28;20034;-81
2022/09/17 04:52:43;;;;;;;12.80;2.60;;;9.50;99.90;;;;;;5014401;28;20053;-81
2022/09/17 04:55:10;;;;;;;12.63;2.15;;;9.50;99.90;;;;;;4999428;28;20503;-81
2022/09/17 04:57:36;;;;;;;10.38;2.10;;;9.50;99.90;;;;;;5014652;28;20081;-81
2022/09/17 05:00:04;;;;;;;10.15;2.13;;;9.40;99.90;;;;;;4997192;28;20495;-81
2022/09/17 05:02:29;;;;;;;11.75;2.30;;;9.40;99.90;;;;;;4995799;28;20476;-81
2022/09/17 05:04:55;;;;;;;11.75;2.63;;;9.30;99.90;;;;;;5001065;28;20103;-81
2022/09/17 05:07:21;;;;;;;11.65;2.10;;;9.30;99.90;;;;;;5005379;28;20045;-81
2022/09/17 05:09:47;;;;;;;13.93;2.25;;;9.30;99.90;;;;;;5007841;28;20496;-81
2022/09/17 05:12:13;;;;;;;12.52;2.13;;;9.20;99.90;;;;;;5013517;28;20121;-81
2022/09/17 05:14:38;;;;;;;13.52;2.00;;;9.20;99.90;;;;;;5003926;28;20128;-81
2022/09/17 05:17:04;;;;;;;10.27;1.90;;;9.20;99.90;;;;;;5011512;28;20046;-81
2022/09/17 05:19:30;;;;;;;12.73;2.13;;;9.20;99.90;;;;;;4996601;28;20052;-82
2022/09/17 05:21:55;;;;;;;14.25;2.38;;;9.20;99.90;;;;;;5000853;28;20092;-80
2022/09/17 05:24:21;;;;;;;13.27;2.28;;;9.20;99.90;;;;;;4999579;28;20034;-81
2022/09/17 05:26:47;;;;;;;10.68;2.00;;;9.20;99.90;;;;;;5003300;28;20046;-81
2022/09/17 05:29:12;;;;;;;13.07;2.50;;;9.20;99.90;;;;;;5013438;28;20125;-81
2022/09/17 05:31:38;;;;;;;12.07;2.13;;;9.20;99.90;;;;;;5005591;28;20493;-81
2022/09/17 05:34:04;;;;;;;9.85;2.10;;;9.20;99.90;;;;;;5000109;28;20519;-81
2022/09/17 05:36:30;;;;;;;13.93;2.17;;;9.20;99.90;;;;;;4983448;28;20056;-81
2022/09/17 05:38:55;;;;;;;11.98;2.20;;;9.30;99.90;;;;;;5001695;28;20485;-81
2022/09/17 05:41:21;;;;;;;14.90;2.30;;;9.30;99.90;;;;;;5002832;28;20120;-81
2022/09/17 05:43:47;;;;;;;14.73;2.33;;;9.40;99.90;;;;;;5001766;28;20042;-81
2022/09/17 05:46:12;;;;;;;15.63;2.42;;;9.40;99.90;;;;;;5003620;28;20400;-81
2022/09/17 05:48:38;;;;;;;14.88;2.40;;;9.40;99.90;;;;;;4989061;28;20508;-81
2022/09/17 05:51:04;;;;;;;10.45;2.33;;;9.40;99.90;;;;;;5021234;28;20085;-81
2022/09/17 05:53:30;;;;;;;11.90;2.25;;;9.40;99.90;;;;;;5021403;28;20476;-81
2022/09/17 05:55:59;;;;;;;11.15;2.00;;;9.40;99.90;;;;;;5001706;28;20042;-81
2022/09/17 05:58:25;;;;;;;13.80;2.38;;;9.40;99.90;;;;;;5021983;28;20029;-81
2022/09/17 06:00:52;;;;;;;9.80;2.10;;;9.40;99.90;;;;;;5020717;28;20072;-81
2022/09/17 06:03:21;;;;;;;13.07;2.40;;;9.50;99.90;;;;;;5025831;28;20045;-82
2022/09/17 06:05:55;;;;;;;13.02;2.53;;;9.60;99.90;;;;;;5027399;28;20052;-82
2022/09/17 06:08:22;;;;;;;13.18;2.38;;;9.70;99.90;;;;;;5019994;28;20060;-81
2022/09/17 06:10:48;;;;;;;13.20;2.40;;;9.80;99.90;;;;;;5024248;28;20052;-81
2022/09/17 06:13:14;;;;;;;13.15;2.28;;;9.90;99.90;;;;;;5018736;28;20041;-81
2022/09/17 06:15:40;;;;;;;13.88;2.40;;;10.00;99.90;;;;;;5014064;28;20096;-82
2022/09/17 06:18:05;;;;;;;12.40;2.65;;;10.10;99.90;;;;;;5001741;28;20093;-81
2022/09/17 06:20:31;;;;;;;14.20;2.28;;;10.40;99.90;;;;;;4989993;28;20180;-81
2022/09/17 06:22:57;;;;;;;12.80;2.58;;;10.60;99.90;;;;;;4994303;28;20393;-82
2022/09/17 06:25:25;;;;;;;11.05;2.10;;;10.80;99.90;;;;;;5016617;28;20045;-81
2022/09/17 06:27:51;;;;;;;13.43;2.25;;;10.90;99.90;;;;;;4998143;28;20080;-82
2022/09/17 06:30:16;;;;;;;13.60;2.00;;;10.90;99.90;;;;;;5000207;28;20123;-81
2022/09/17 06:32:42;;;;;;;9.88;2.08;;;10.80;99.90;;;;;;4999787;28;20038;-82
2022/09/17 06:35:08;;;;;;;13.02;2.10;;;10.70;99.90;;;;;;4996074;28;20420;-81
2022/09/17 06:37:35;;;;;;;10.23;1.90;;;10.70;99.90;;;;;;4999414;28;20453;-81
2022/09/17 06:40:01;;;;;;;9.63;1.67;;;10.60;99.90;;;;;;5000695;28;20527;-82
2022/09/17 06:42:30;;;;;;;11.20;1.65;;;10.50;99.90;;;;;;5000529;28;20081;-83
2022/09/17 06:44:57;;;;;;;9.48;1.70;;;10.50;99.90;;;;;;5001312;28;20064;-82
2022/09/17 06:47:26;;;;;;;8.68;1.70;;;10.50;99.90;;;;;;5005649;28;20065;-83
2022/09/17 06:49:53;;;;;;;7.20;1.50;;;10.50;99.90;;;;;;4999759;28;20077;-82
2022/09/17 06:52:19;;;;;;;7.72;1.60;;;10.40;99.90;;;;;;4998676;28;20046;-82
2022/09/17 06:54:44;;;;;;;8.48;1.70;;;10.40;99.90;;;;;;5014340;28;20486;-81
2022/09/17 06:57:10;;;;;;;9.07;1.70;;;10.40;99.90;;;;;;4998310;28;20048;-82
2022/09/17 06:59:36;;;;;;;9.82;1.63;;;10.40;99.90;;;;;;4982139;28;20029;-82
2022/09/17 07:02:01;;;;;;;9.23;1.90;;;10.30;99.90;;;;;;4986823;28;20045;-82
2022/09/17 07:04:27;;;;;;;10.57;2.13;;;10.30;99.90;;;;;;4997857;28;20548;-83
2022/09/17 07:06:53;;;;;;;11.02;1.73;;;10.30;99.90;;;;;;4996435;28;20046;-82
2022/09/17 07:09:18;;;;;;;8.88;1.80;;;10.30;99.90;;;;;;4998293;28;20124;-82
2022/09/17 07:11:44;;;;;;;8.10;1.48;;;10.30;99.90;;;;;;4997323;28;20046;-83
2022/09/17 07:14:10;;;;;;;8.40;1.98;;;10.50;99.90;;;;;;4997340;28;20569;-82
2022/09/17 07:16:35;;;;;;;10.82;1.67;;;10.70;99.90;;;;;;5023629;28;20045;-82
2022/09/17 07:19:03;;;;;;;12.77;2.05;;;10.90;99.90;;;;;;4996796;28;20041;-83
2022/09/17 07:21:28;;;;;;;11.95;1.83;;;11.20;99.90;;;;;;4996315;28;20057;-82
2022/09/17 07:23:54;;;;;;;7.95;1.75;;;11.40;99.90;;;;;;5028891;28;20042;-82
2022/09/17 07:26:20;;;;;;;13.18;1.88;;;11.40;99.90;;;;;;5027837;28;20056;-81
2022/09/17 07:28:45;;;;;;;8.85;1.90;;;11.50;99.90;;;;;;5003067;28;20092;-82
2022/09/17 07:31:13;;;;;;;11.40;2.13;;;11.40;99.90;;;;;;4999920;28;20041;-82
2022/09/17 07:33:40;;;;;;;9.93;2.08;;;11.40;99.90;;;;;;5002859;28;20045;-82
2022/09/17 07:36:18;;;;;;;9.88;1.65;;;11.40;99.90;;;;;;5001022;28;20038;-82
2022/09/17 07:38:44;;;;;;;10.95;2.05;;;11.40;99.90;;;;;;5000547;28;20081;-82
2022/09/17 07:41:12;;;;;;;9.80;1.98;;;11.40;99.90;;;;;;4998320;28;20540;-82
2022/09/17 07:43:39;;;;;;;12.82;2.10;;;11.50;99.90;;;;;;4980483;28;20135;-82
2022/09/17 07:46:07;;;;;;;10.70;1.90;;;11.60;99.90;;;;;;4977843;28;20424;-83
2022/09/17 07:48:33;;;;;;;12.95;1.98;;;11.70;99.90;;;;;;5029932;28;20537;-84
2022/09/17 07:50:59;;;;;;;10.30;1.70;;;11.80;99.90;;;;;;4997072;28;20128;-83
2022/09/17 07:53:25;;;;;;;11.25;1.98;;;11.80;99.90;;;;;;4995937;28;20076;-82
2022/09/17 07:55:56;;;;;;;9.15;1.80;;;11.90;99.90;;;;;;4997143;28;20045;-82
2022/09/17 07:58:23;;;;;;;9.45;1.80;;;11.90;99.90;;;;;;4996873;28;20038;-82
2022/09/17 08:00:49;;;;;;;9.77;1.80;;;11.90;99.90;;;;;;5025237;28;20077;-81
2022/09/17 08:03:15;;;;;;;9.80;1.80;;;11.80;99.90;;;;;;4988397;28;20077;-81
2022/09/17 08:05:41;;;;;;;10.13;1.85;;;11.80;99.90;;;;;;5027668;28;20124;-81
2022/09/17 08:08:07;;;;;;;9.82;1.90;;;11.90;99.90;;;;;;4995797;28;20145;-82
2022/09/17 08:10:32;;;;;;;9.18;1.85;;;11.90;99.90;;;;;;5029403;28;20528;-82
2022/09/17 08:12:58;;;;;;;12.15;1.95;;;12.00;99.90;;;;;;4996015;28;20052;-82
2022/09/17 08:15:24;;;;;;;8.13;1.70;;;12.10;99.90;;;;;;4967273;28;20054;-82
2022/09/17 08:17:51;;;;;;;9.68;1.65;;;12.10;99.90;;;;;;4996353;28;20050;-82
2022/09/17 08:20:18;;;;;;;9.35;1.75;;;12.20;99.90;;;;;;4996920;28;20038;-82
2022/09/17 08:22:44;;;;;;;11.65;1.90;;;12.30;99.90;;;;;;4963663;28;20115;-82
2022/09/17 08:25:10;;;;;;;8.30;1.50;;;12.40;99.90;;;;;;5012803;28;20463;-82
2022/09/17 08:27:37;;;;;;;8.50;1.50;;;12.40;99.90;;;;;;4979905;28;20033;-82
2022/09/17 08:30:07;;;;;;;9.60;1.73;;;12.60;99.90;;;;;;4996819;28;20492;-82
2022/09/17 08:32:33;;;;;;;9.45;1.65;;;12.70;99.90;;;;;;4996019;28;20073;-81
2022/09/17 08:34:59;;;;;;;9.32;1.60;;;12.90;99.90;;;;;;4995856;28;20076;-82
2022/09/17 08:37:28;;;;;;;9.38;1.45;;;13.20;99.90;;;;;;4995827;28;20452;-82
2022/09/17 08:39:54;;;;;;;7.82;1.40;;;13.40;99.90;;;;;;4995911;28;20153;-82
2022/09/17 08:42:34;;;;;;;7.63;1.50;;;13.70;99.90;;;;;;4997757;28;20050;-81
2022/09/17 08:45:03;;;;;;;8.07;1.50;;;13.90;99.90;;;;;;4996666;28;20040;-82
2022/09/17 08:47:35;;;;;;;8.50;1.60;;;14.00;99.90;;;;;;4996001;28;20481;-81
2022/09/17 08:50:05;;;;;;;9.63;1.45;;;13.80;99.90;;;;;;4995770;28;20038;-81
2022/09/17 08:52:36;;;;;;;6.38;1.48;;;13.50;99.90;;;;;;4995049;28;20561;-81
2022/09/17 08:55:10;;;;;;;9.70;1.52;;;13.30;99.90;;;;;;4997333;28;20030;-81
2022/09/17 08:58:13;;;;;;;7.13;1.20;;;13.00;99.90;;;;;;4979603;28;20049;-81
2022/09/17 09:00:54;;;;;;;7.75;1.50;;;12.70;99.90;;;;;;4989505;28;20048;-82
2022/09/17 09:03:51;;;;;;;8.93;1.38;;;12.40;99.90;;;;;;5004648;28;20046;-81
2022/09/17 09:06:20;;;;;;;7.28;1.23;;;12.30;99.90;;;;;;4989899;28;20046;-81
2022/09/17 09:08:55;;;;;;;11.52;1.50;;;12.30;99.90;;;;;;4994905;28;20046;-82
2022/09/17 09:11:26;;;;;;;7.35;1.30;;;12.50;99.90;;;;;;4995742;28;20507;-82
2022/09/17 09:14:07;;;;;;;7.80;1.48;;;12.70;99.90;;;;;;4995194;28;20092;-81
2022/09/17 09:16:37;;;;;;;8.27;1.67;;;12.90;99.90;;;;;;5008782;28;20103;-80
2022/09/17 09:19:30;;;;;;;7.65;1.48;;;13.10;99.90;;;;;;5012924;28;20749;-82
2022/09/17 09:22:13;;;;;;;6.38;1.23;;;13.30;99.90;;;;;;5006442;28;20081;-81
2022/09/17 09:25:04;;;;;;;8.32;1.40;;;13.50;99.90;;;;;;5002212;28;20029;-82
2022/09/17 09:27:56;;;;;;;10.20;1.60;;;13.70;99.90;;;;;;5015037;28;20172;-81
2022/09/17 09:30:23;;;;;;;7.87;1.27;;;13.80;99.90;;;;;;4976173;28;20046;-82
2022/09/17 09:33:16;;;;;;;6.70;1.38;;;14.00;99.90;;;;;;5012661;28;20091;-81
2022/09/17 09:35:43;;;;;;;8.43;1.60;;;14.00;99.90;;;;;;5015429;28;20512;-81
2022/09/17 09:38:17;;;;;;;8.38;1.65;;;13.80;99.90;;;;;;4997728;28;20069;-82
2022/09/17 09:40:54;;;;;;;4.85;1.23;;;13.60;99.90;;;;;;5015285;28;20045;-82
2022/09/17 09:43:39;;;;;;;6.32;1.42;;;13.60;99.90;;;;;;5015118;28;20080;-82
2022/09/17 09:46:14;;;;;;;7.25;1.42;;;13.50;99.90;;;;;;5014976;28;20128;-81
2022/09/17 09:48:51;;;;;;;6.95;1.38;;;13.40;99.90;;;;;;5014772;28;20037;-81
2022/09/17 09:51:23;;;;;;;8.68;1.48;;;13.40;99.90;;;;;;5015114;28;20076;-81
2022/09/17 09:54:13;;;;;;;8.02;1.58;;;13.60;99.90;;;;;;5014074;28;20045;-82
2022/09/17 09:56:56;;;;;;;8.93;1.50;;;13.70;99.90;;;;;;5011472;28;20087;-81
2022/09/17 09:59:22;;;;;;;9.48;1.60;;;13.80;99.90;;;;;;5017390;28;20042;-82
2022/09/17 10:01:47;;;;;;;7.32;1.40;;;13.80;99.90;;;;;;5014771;28;20041;-81
2022/09/17 10:04:25;;;;;;;9.40;1.70;;;13.70;99.90;;;;;;5031522;28;20128;-81
2022/09/17 10:07:10;;;;;;;9.60;1.75;;;13.50;99.90;;;;;;5013451;28;20052;-81
2022/09/17 10:09:37;;;;;;;8.20;1.33;;;13.20;99.90;;;;;;5015049;28;20075;-81
2022/09/17 10:12:12;;;;;;;9.65;1.60;;;13.40;99.90;;;;;;5000948;28;20046;-81
2022/09/17 10:14:40;;;;;;;9.00;1.67;;;13.70;99.90;;;;;;5014697;28;20522;-82
2022/09/17 10:17:19;;;;;;;8.50;1.60;;;13.70;99.90;;;;;;5027418;28;20508;-81
2022/09/17 10:20:09;;;;;;;9.48;1.60;;;13.60;99.90;;;;;;5002255;28;20054;-81
2022/09/17 10:22:39;;;;;;;8.15;1.55;;;13.30;99.90;;;;;;4997289;28;20061;-81
2022/09/17 10:25:16;;;;;;;7.72;1.58;;;13.30;99.90;;;;;;5031164;28;20099;-81
2022/09/17 10:27:44;;;;;;;7.53;1.55;;;13.20;99.90;;;;;;5016233;28;20140;-81
2022/09/17 10:30:16;;;;;;;6.72;1.25;;;13.20;99.90;;;;;;5018698;28;20045;-81
2022/09/17 10:32:43;;;;;;;6.65;1.17;;;13.10;99.90;;;;;;5018155;28;20501;-81
2022/09/17 10:35:14;;;;;;;8.43;1.45;;;13.30;99.90;;;;;;5027476;28;20416;-82
2022/09/17 10:37:48;;;;;;;9.00;1.38;;;13.60;99.90;;;;;;5021026;28;20049;-82
2022/09/17 10:40:17;;;;;;;10.52;1.70;;;13.80;99.90;;;;;;5027258;28;20040;-82
2022/09/17 10:42:44;;;;;;;7.38;1.40;;;14.20;99.90;;;;;;5022037;28;20072;-81
2022/09/17 10:45:24;;;;;;;9.13;1.42;;;14.50;99.90;;;;;;5018184;28;20044;-82
2022/09/17 10:47:50;;;;;;;7.25;1.35;;;14.60;99.90;;;;;;5015064;28;20613;-81
2022/09/17 10:50:17;;;;;;;8.65;1.50;;;14.90;99.90;;;;;;5018144;28;20073;-81
2022/09/17 10:52:53;;;;;;;7.47;1.40;;;15.00;99.90;;;;;;5023478;28;20046;-82
2022/09/17 10:55:34;;;;;;;8.60;1.60;;;15.20;99.90;;;;;;5018148;28;20507;-82
2022/09/17 10:58:06;;;;;;;9.37;1.60;;;15.40;99.90;;;;;;5027158;28;20046;-82
2022/09/17 11:00:58;;;;;;;7.03;1.35;;;15.60;99.90;;;;;;5017864;28;20040;-82
2022/09/17 11:03:38;;;;;;;7.10;1.55;;;15.80;99.90;;;;;;5016306;28;20045;-79
2022/09/17 11:06:29;;;;;;;7.32;1.38;;;15.80;99.90;;;;;;5017518;28;20052;-79
2022/09/17 11:09:06;;;;;;;7.22;1.42;;;15.80;99.90;;;;;;5016864;28;20037;-79
2022/09/17 11:11:46;;;;;;;8.40;1.60;;;15.60;99.90;;;;;;5017261;28;20176;-78
2022/09/17 11:14:18;;;;;;;6.57;1.30;;;15.20;99.90;;;;;;5017393;28;20042;-79
2022/09/17 11:17:07;;;;;;;7.05;1.33;;;14.70;99.90;;;;;;5003547;28;20092;-79
2022/09/17 11:20:08;;;;;;;7.32;1.67;;;14.20;99.90;;;;;;4986754;28;20483;-79
2022/09/17 11:22:45;;;;;;;9.82;1.70;;;13.90;99.90;;;;;;4966950;28;20520;-79
2022/09/17 11:25:30;;;;;;;5.95;1.38;;;13.70;99.90;;;;;;4997741;28;20042;-79
2022/09/17 11:28:24;;;;;;;8.07;1.92;;;13.60;99.90;;;;;;4997175;28;20045;-80
2022/09/17 11:31:33;;;;;;;9.95;1.75;;;13.70;99.90;;;;;;4997965;28;20511;-80
2022/09/17 11:34:23;;;;;;;8.80;1.70;;;13.70;99.90;;;;;;4996094;28;20489;-80
2022/09/17 11:36:59;;;;;;;9.05;1.80;;;13.60;99.90;;;;;;4996486;28;20124;-80
2022/09/17 11:39:31;;;;;;;8.75;1.85;;;13.50;99.90;;;;;;4996238;28;20120;-80
2022/09/17 11:42:00;;;;;;;10.25;1.95;;;13.30;99.90;;;;;;5002875;28;20369;-81
2022/09/17 11:44:36;;;;;;;8.63;1.70;;;13.20;99.90;;;;;;4987220;28;20057;-80
2022/09/17 11:47:09;;;;;;;9.70;1.80;;;13.10;99.90;;;;;;4985197;28;20069;-80
2022/09/17 11:49:46;;;;;;;9.20;1.67;;;13.20;99.90;;;;;;4997265;28;20099;-79
2022/09/17 11:52:50;;;;;;;7.38;1.83;;;13.40;99.90;;;;;;4990254;28;20042;-79
2022/09/17 11:55:45;;;;;;;9.73;2.03;;;13.50;99.90;;;;;;4996989;28;20046;-80
2022/09/17 11:58:25;;;;;;;7.82;1.50;;;13.70;99.90;;;;;;4991089;28;20049;-79
2022/09/17 12:01:00;;;;;;;8.13;1.42;;;13.80;99.90;;;;;;4993272;28;20465;-81
2022/09/17 12:03:58;;;;;;;8.63;1.63;;;13.80;99.90;;;;;;4995552;28;20501;-78
2022/09/17 12:06:39;;;;;;;10.02;1.73;;;13.70;99.90;;;;;;4977643;28;20042;-79
2022/09/17 12:09:14;;;;;;;7.68;1.70;;;13.60;99.90;;;;;;4996498;28;20030;-79
2022/09/17 12:12:06;;;;;;;9.80;1.77;;;13.60;99.90;;;;;;4996143;28;20096;-79
2022/09/17 12:15:02;;;;;;;8.30;1.67;;;13.60;99.90;;;;;;4989422;28;20517;-79
2022/09/17 12:17:38;;;;;;;9.07;1.80;;;13.70;99.90;;;;;;5029386;28;20052;-79
2022/09/17 12:20:30;;;;;;;9.10;1.92;;;13.80;99.90;;;;;;5018295;28;20163;-79
2022/09/17 12:22:58;;;;;;;9.20;1.85;;;14.00;99.90;;;;;;5006120;28;20183;-79
2022/09/17 12:25:31;;;;;;;11.10;1.88;;;14.20;99.90;;;;;;5015787;28;20050;-78
2022/09/17 12:28:18;;;;;;;10.43;2.03;;;14.30;99.90;;;;;;5002973;28;20496;-79
2022/09/17 12:30:53;;;;;;;9.35;1.98;;;14.40;99.90;;;;;;4998514;28;20087;-78
2022/09/17 12:33:31;;;;;;;9.05;1.90;;;14.50;99.90;;;;;;5013093;28;20044;-79
2022/09/17 12:36:21;;;;;;;8.05;1.77;;;14.70;99.90;;;;;;5001963;28;20036;-79
2022/09/17 12:39:05;;;;;;;9.15;1.77;;;14.60;99.90;;;;;;5000270;28;20104;-80
2022/09/17 12:41:56;;;;;;;10.75;1.90;;;14.70;99.90;;;;;;5004245;28;20567;-79
2022/09/17 12:44:57;;;;;;;8.37;1.53;;;14.90;99.90;;;;;;5018812;28;20401;-79
2022/09/17 12:47:38;;;;;;;9.23;1.70;;;14.90;99.90;;;;;;5011697;28;20120;-79
2022/09/17 12:50:34;;;;;;;9.52;1.77;;;15.00;99.90;;;;;;5013706;28;20048;-80
2022/09/17 12:53:01;;;;;;;9.57;1.65;;;15.00;99.90;;;;;;4966691;28;20406;-79
2022/09/17 12:55:29;;;;;;;10.38;1.90;;;15.10;99.90;;;;;;4999789;28;20513;-79
2022/09/17 12:58:27;;;;;;;10.07;2.00;;;15.10;99.90;;;;;;5004203;28;20040;-80
2022/09/17 13:01:04;;;;;;;8.45;1.63;;;15.20;99.90;;;;;;5009844;28;20072;-80
2022/09/17 13:03:54;;;;;;;7.20;1.70;;;15.30;99.90;;;;;;5001131;28;20052;-80
2022/09/17 13:06:38;;;;;;;11.85;1.70;;;15.30;99.90;;;;;;5002866;28;20045;-80
2022/09/17 13:09:35;;;;;;;9.27;1.75;;;15.40;99.90;;;;;;5002040;28;20041;-81
2022/09/17 13:12:12;;;;;;;9.20;1.90;;;15.40;99.90;;;;;;5021141;28;20077;-80
2022/09/17 13:14:47;;;;;;;8.68;1.73;;;15.40;99.90;;;;;;5011614;28;20072;-80